Aérodrome :
LOGIN :

S'inscrire | Disclaimer

   EN    FR    IT 

 










Légende :    VFR   VFR Marginal   IFR   IFR Intensif   IFR Très Intensif
Visi : 
Plafond : 
>= 8 km
>= 3000ft
5 à 8 km
1000 à 3000 ft
1500m à 5 km
500 à 1000 ft
800 à 1500m
200 à 500 ft
< 800m
< 200 ft
Symboles :   Orages  Brouillard  Fortes neiges  Fortes précipitations  Vent > 20 kt
SIGMETs :   Divers  Orages  Givrage  Turbulence  Onde Orograph.  Cendres Volcan.






- Altitude de l'aérodrome : 197 ft
- Code IATA : XOG


LFMO - Orange

DERNIER METAR :
  • 220130Z AUTO 34015KT CAVOK 09/M02 Q1028 NOSIG

METARs EXPIRÉS :
  • 220100Z AUTO 34016KT CAVOK 09/M02 Q1028 TEMPO 35015G25KT
  • 220030Z AUTO 34017KT CAVOK 09/M02 Q1028 TEMPO 35015G25KT
  • 220000Z AUTO 34019KT CAVOK 09/M02 Q1028 BECMG 35015G25KT
  • 212330Z AUTO 34018KT CAVOK 09/M02 Q1028 BECMG 35015G25KT
  • 212300Z AUTO 34016KT CAVOK 10/M01 Q1028 BECMG 35015G25KT

TAF TAF LFMO
Valide du 21 à 21h jusqu'au 22 à 21h UTC


212000Z 2121/2221 35015G25KT CAVOK
BECMG 2202/2204 35010KT
BECMG 2212/2214 14005KT



MET'MAP, la Météo Aéronautique d'un coup d'oeil ! - Copyright ORBIFLY Décembre 2007 - Disclaimer

ORBIFLY MET'MAP TEAM :

Programmation & Développement : Alexandra Zaïnal
Sur une idée originale de : Baudouin d'Aumeries
Assistance à la programmation : Marc-Olivier Méhu
Soutien technique & logistique : Manuel Goepfert

Contact : metmap@orbifly.com




SOURCES & CREDITS :

   NOAA